Time;durP1;ratioP1;P1;durP2;ratioP2;P2;SDS_P1;SDS_P2;PMS_P1;PMS_P2;Temp;Humidity;BMP_temperature;BMP_pressure;BME280_temperature;BME280_humidity;BME280_pressure;Samples;Min_cycle;Max_cycle;Signal;HPM_P1;HPM_P2
2022/06/13 00:00:31;;;;;;;5.45;2.72;;;;;;;19.36;55.26;99050.19;5002542;28;21180;-76
2022/06/13 00:02:57;;;;;;;7.43;2.80;;;;;;;19.33;55.39;99047.25;5004187;28;20514;-76
2022/06/13 00:05:23;;;;;;;5.32;3.05;;;;;;;19.32;54.90;99049.16;5004609;28;20037;-76
2022/06/13 00:07:48;;;;;;;3.60;2.50;;;;;;;19.43;54.58;99056.00;5018378;28;20026;-77
2022/06/13 00:10:14;;;;;;;6.78;2.47;;;;;;;19.42;54.64;99051.69;5004859;28;21627;-76
2022/06/13 00:12:42;;;;;;;4.15;2.33;;;;;;;19.26;55.39;99047.63;5003244;28;20061;-76
2022/06/13 00:15:09;;;;;;;5.38;2.78;;;;;;;19.32;54.88;99051.84;5004458;28;20087;-75
2022/06/13 00:17:34;;;;;;;4.43;2.40;;;;;;;19.24;55.05;99041.69;5006350;28;20486;-76
2022/06/13 00:20:00;;;;;;;5.72;2.78;;;;;;;19.12;55.74;99051.41;5004555;28;20332;-76
2022/06/13 00:22:26;;;;;;;5.90;2.47;;;;;;;19.06;55.32;99041.78;5004625;28;20370;-76
2022/06/13 00:24:51;;;;;;;7.68;2.38;;;;;;;19.17;55.44;99056.75;5000833;28;20034;-76
2022/06/13 00:27:16;;;;;;;8.05;2.35;;;;;;;18.95;55.96;99046.59;5002872;28;20383;-76
2022/06/13 00:29:44;;;;;;;7.05;2.95;;;;;;;18.79;56.50;99057.97;5003574;28;20069;-76
2022/06/13 00:32:10;;;;;;;6.10;2.45;;;;;;;18.94;55.91;99050.38;5002758;28;20543;-76
2022/06/13 00:34:35;;;;;;;5.70;2.75;;;;;;;18.90;55.61;99060.19;5001948;28;20039;-76
2022/06/13 00:37:00;;;;;;;8.65;2.75;;;;;;;18.98;55.96;99062.22;5004523;28;20409;-77
2022/06/13 00:39:26;;;;;;;5.03;2.22;;;;;;;18.81;56.12;99048.44;5000628;28;20038;-76
2022/06/13 00:41:51;;;;;;;5.45;2.38;;;;;;;18.64;56.24;99034.69;5002956;28;20030;-76
2022/06/13 00:44:23;;;;;;;7.35;2.85;;;;;;;18.84;56.04;99047.88;5003542;28;20037;-76
2022/06/13 00:46:50;;;;;;;5.13;3.10;;;;;;;18.76;56.28;99048.56;5001700;28;20457;-76
2022/06/13 00:49:24;;;;;;;5.93;2.53;;;;;;;18.79;55.97;99045.25;5003916;28;20262;-76
2022/06/13 00:51:55;;;;;;;6.88;2.53;;;;;;;18.66;56.19;99049.53;4984881;28;20433;-76
2022/06/13 00:54:22;;;;;;;6.43;2.42;;;;;;;18.41;56.72;99038.28;5003960;28;20123;-76
2022/06/13 00:56:50;;;;;;;7.35;2.28;;;;;;;18.59;56.06;99042.88;5005689;28;20057;-76
2022/06/13 00:59:20;;;;;;;5.43;2.53;;;;;;;18.51;56.92;99051.66;4988504;28;20045;-76
2022/06/13 01:01:46;;;;;;;5.55;2.50;;;;;;;18.42;56.44;99031.78;5004775;28;20040;-76
2022/06/13 01:04:12;;;;;;;7.13;2.88;;;;;;;18.56;56.26;99032.66;5003166;28;20026;-76
2022/06/13 01:06:43;;;;;;;5.82;2.47;;;;;;;18.49;55.87;99034.94;4990552;28;20436;-76
2022/06/13 01:09:11;;;;;;;9.25;2.97;;;;;;;18.29;57.27;99032.53;5005158;28;20021;-76
2022/06/13 01:11:43;;;;;;;5.15;3.00;;;;;;;18.41;56.76;99035.59;5000355;28;20474;-76
2022/06/13 01:14:17;;;;;;;5.55;2.70;;;;;;;18.33;56.70;99044.34;5007214;28;20032;-75
2022/06/13 01:17:01;;;;;;;5.68;2.75;;;;;;;18.42;56.41;99048.81;5020207;28;20655;-76
2022/06/13 01:19:45;;;;;;;7.97;2.50;;;;;;;18.37;56.93;99056.19;5002797;28;20030;-75
2022/06/13 01:22:44;;;;;;;4.50;2.70;;;;;;;18.03;57.23;99058.31;5017625;28;20018;-76
2022/06/13 01:25:25;;;;;;;5.35;2.40;;;;;;;18.09;57.29;99059.84;5002391;28;20438;-76
2022/06/13 01:28:18;;;;;;;7.10;3.40;;;;;;;17.97;58.13;99057.59;5005303;28;20034;-76
2022/06/13 01:30:56;;;;;;;4.30;2.70;;;;;;;18.29;57.03;99056.84;5004072;28;20034;-76
2022/06/13 01:33:32;;;;;;;4.80;2.58;;;;;;;18.31;57.34;99046.53;5001928;28;20053;-76
2022/06/13 01:36:22;;;;;;;2.75;2.05;;;;;;;18.14;57.22;99052.47;5005370;28;20022;-76
2022/06/13 01:39:00;;;;;;;10.20;2.67;;;;;;;18.15;57.60;99064.09;5001938;28;20088;-76
2022/06/13 01:41:34;;;;;;;3.95;2.53;;;;;;;17.86;58.08;99056.13;5002877;28;20713;-76
2022/06/13 01:44:14;;;;;;;6.30;3.10;;;;;;;17.89;58.12;99048.22;5018308;28;20028;-76
2022/06/13 01:46:43;;;;;;;6.05;2.67;;;;;;;18.03;57.98;99052.91;5003806;28;20034;-76
2022/06/13 01:49:20;;;;;;;8.48;2.90;;;;;;;17.76;58.96;99051.63;5005736;28;20041;-76
2022/06/13 01:52:07;;;;;;;4.80;2.35;;;;;;;17.96;58.11;99035.16;5004288;28;20062;-76
2022/06/13 01:55:05;;;;;;;7.05;2.90;;;;;;;17.93;58.43;99051.94;5002437;28;20029;-76
2022/06/13 01:57:30;;;;;;;7.47;3.10;;;;;;;17.91;58.29;99059.53;5004439;28;20041;-76
2022/06/13 02:00:25;;;;;;;6.00;2.97;;;;;;;17.74;58.97;99053.03;4998752;28;20030;-75
2022/06/13 02:03:03;;;;;;;10.80;2.88;;;;;;;17.31;60.08;99048.66;5006041;28;20421;-76
2022/06/13 02:05:41;;;;;;;9.05;4.22;;;;;;;16.64;62.23;99063.09;5006280;28;20053;-75
2022/06/13 02:08:19;;;;;;;5.97;2.80;;;;;;;17.55;59.28;99069.19;5003338;28;20569;-76
2022/06/13 02:10:52;;;;;;;8.48;2.80;;;;;;;17.74;58.84;99063.81;5000984;28;20159;-75
2022/06/13 02:13:27;;;;;;;5.85;2.97;;;;;;;17.78;58.09;99056.75;5001434;28;20477;-76
2022/06/13 02:15:57;;;;;;;5.88;3.08;;;;;;;17.54;58.40;99054.06;5001335;28;20026;-76
2022/06/13 02:18:30;;;;;;;4.38;3.10;;;;;;;17.51;58.79;99049.28;5003829;28;20037;-76
2022/06/13 02:21:06;;;;;;;4.78;2.65;;;;;;;17.59;58.92;99061.31;5002666;28;20033;-75
2022/06/13 02:23:35;;;;;;;;;;;;;;;17.71;58.50;99061.72;5002631;28;20026;-76
2022/06/13 02:26:04;;;;;;;6.40;3.13;;;;;;;17.69;58.73;99048.47;5004878;28;19913;-76
2022/06/13 02:28:43;;;;;;;6.60;3.17;;;;;;;17.75;58.60;99063.56;5002196;28;20040;-75
2022/06/13 02:31:32;;;;;;;13.93;3.85;;;;;;;17.69;58.65;99070.09;4996384;28;20067;-76
2022/06/13 02:34:03;;;;;;;8.48;3.38;;;;;;;17.66;59.25;99067.97;5003573;28;20121;-75
2022/06/13 02:36:46;;;;;;;5.20;2.65;;;;;;;17.69;59.01;99061.19;4998980;28;20448;-75
2022/06/13 02:39:23;;;;;;;7.50;3.40;;;;;;;17.75;58.91;99062.75;5003202;28;20029;-75
2022/06/13 02:42:03;;;;;;;5.18;2.42;;;;;;;17.75;58.91;99051.94;5005793;28;20025;-76
2022/06/13 02:44:39;;;;;;;7.35;2.70;;;;;;;17.72;58.73;99060.59;5001828;28;20125;-75
2022/06/13 02:47:11;;;;;;;;;;;;;;;17.00;62.24;99069.75;5003181;28;20041;-76
2022/06/13 02:49:43;;;;;;;6.28;2.70;;;;;;;17.08;60.98;99061.06;5003621;28;19921;-76
2022/06/13 02:52:29;;;;;;;10.82;3.53;;;;;;;17.17;60.44;99043.13;5004829;28;20065;-76
2022/06/13 02:54:59;;;;;;;7.40;3.15;;;;;;;17.23;60.41;99047.41;5010932;28;20109;-76
2022/06/13 02:57:31;;;;;;;8.98;3.00;;;;;;;17.76;59.24;99050.84;5003583;28;20029;-75
2022/06/13 03:00:37;;;;;;;8.65;3.03;;;;;;;17.80;59.29;99060.75;5009031;28;20398;-76
2022/06/13 03:03:06;;;;;;;4.95;2.95;;;;;;;17.79;59.13;99061.88;5002159;28;20025;-76
2022/06/13 03:05:58;;;;;;;6.82;3.22;;;;;;;17.90;59.11;99041.75;5006680;28;20479;-76
2022/06/13 03:08:47;;;;;;;9.27;2.83;;;;;;;17.82;58.88;99047.78;5005294;28;20096;-76
2022/06/13 03:11:21;;;;;;;6.70;3.53;;;;;;;17.81;58.94;99059.69;5009278;28;20385;-76
2022/06/13 03:14:01;;;;;;;6.97;2.88;;;;;;;17.68;59.43;99055.00;5020899;28;20069;-76
2022/06/13 03:16:35;;;;;;;7.03;2.97;;;;;;;17.71;60.06;99067.13;5004511;28;20065;-75
2022/06/13 03:19:22;;;;;;;12.35;3.63;;;;;;;16.86;62.94;99060.72;5019585;28;20033;-75
2022/06/13 03:21:52;;;;;;;10.10;4.68;;;;;;;16.10;65.19;99063.97;5002426;28;20040;-76
2022/06/13 03:24:29;;;;;;;9.50;3.53;;;;;;;17.26;61.36;99065.72;5022154;28;20095;-76
2022/06/13 03:27:00;;;;;;;4.90;2.88;;;;;;;17.46;60.31;99060.09;5002404;28;20469;-76
2022/06/13 03:29:33;;;;;;;8.63;3.35;;;;;;;17.71;59.99;99072.50;5006558;28;20037;-76
2022/06/13 03:32:06;;;;;;;7.43;3.42;;;;;;;17.56;59.67;99076.19;5008387;28;20548;-75
2022/06/13 03:34:40;;;;;;;8.20;3.45;;;;;;;17.19;63.04;99073.31;5005748;28;20029;-76
2022/06/13 03:37:15;;;;;;;10.02;3.58;;;;;;;17.23;60.96;99063.59;5004182;28;20033;-76
2022/06/13 03:39:50;;;;;;;10.98;3.40;;;;;;;17.17;62.15;99072.81;5005980;28;20087;-76
2022/06/13 03:42:23;;;;;;;3.28;2.97;;;;;;;17.30;60.58;99076.75;5006379;28;20032;-76
2022/06/13 03:44:59;;;;;;;5.20;2.83;;;;;;;17.40;60.66;99085.53;5006078;28;20117;-77
2022/06/13 03:47:37;;;;;;;8.45;3.72;;;;;;;17.23;61.05;99075.16;5007419;28;20037;-76
2022/06/13 03:50:24;;;;;;;12.40;4.38;;;;;;;17.31;61.32;99103.44;5003535;28;20156;-76
2022/06/13 03:52:56;;;;;;;8.07;3.45;;;;;;;17.12;61.57;99113.34;5004062;28;20042;-76
2022/06/13 03:55:43;;;;;;;8.40;3.38;;;;;;;17.36;61.19;99100.69;5002721;28;20033;-76
2022/06/13 03:58:15;;;;;;;8.35;3.70;;;;;;;17.45;60.76;99088.16;5003299;28;20036;-76
2022/06/13 04:00:57;;;;;;;12.30;3.40;;;;;;;17.33;61.24;99090.47;5022330;28;20438;-76
2022/06/13 04:03:24;;;;;;;4.53;3.40;;;;;;;17.27;61.63;99088.91;5001861;28;20021;-76
2022/06/13 04:06:01;;;;;;;9.75;3.38;;;;;;;17.24;61.89;99092.16;5019246;28;20394;-76
2022/06/13 04:08:30;;;;;;;7.80;3.55;;;;;;;17.51;60.88;99086.25;5020607;28;20022;-76
2022/06/13 04:11:06;;;;;;;5.95;3.50;;;;;;;17.55;60.53;99093.50;5000765;28;20478;-75
2022/06/13 04:13:49;;;;;;;11.70;4.43;;;;;;;16.80;64.75;99103.09;5007097;28;20026;-76
2022/06/13 04:16:31;;;;;;;6.72;3.72;;;;;;;16.94;63.36;99098.66;5007838;28;20104;-76
2022/06/13 04:19:15;;;;;;;7.75;3.08;;;;;;;17.08;63.63;99099.59;5008246;28;20117;-76
2022/06/13 04:21:59;;;;;;;8.05;3.42;;;;;;;17.09;62.73;99098.53;5002579;28;20481;-76
2022/06/13 04:24:37;;;;;;;15.25;4.05;;;;;;;16.66;64.88;99104.03;5002782;28;20052;-76
2022/06/13 04:27:26;;;;;;;16.05;4.28;;;;;;;17.03;63.69;99093.47;5002743;28;20481;-76
2022/06/13 04:30:14;;;;;;;9.82;3.75;;;;;;;17.30;62.16;99088.31;5003639;28;20033;-77
2022/06/13 04:32:59;;;;;;;7.63;3.40;;;;;;;17.08;63.66;99086.13;5006733;28;20474;-75
2022/06/13 04:35:26;;;;;;;7.00;3.15;;;;;;;17.59;61.11;99083.72;5002188;28;20535;-77
2022/06/13 04:37:52;;;;;;;7.63;3.13;;;;;;;17.76;61.10;99102.94;5002305;28;20393;-77
2022/06/13 04:40:23;;;;;;;7.90;3.47;;;;;;;17.67;62.58;99117.38;4993488;28;20033;-76
2022/06/13 04:42:50;;;;;;;8.40;3.25;;;;;;;17.98;60.05;99118.59;4992578;28;20030;-76
2022/06/13 04:45:27;;;;;;;13.52;3.83;;;;;;;18.07;61.82;99106.06;4995957;28;20053;-76
2022/06/13 04:47:55;;;;;;;9.20;4.15;;;;;;;17.51;64.22;99105.13;5001486;28;20492;-75
2022/06/13 04:50:33;;;;;;;5.75;3.50;;;;;;;17.17;64.63;99097.09;5005856;28;20030;-76
2022/06/13 04:53:01;;;;;;;10.10;3.95;;;;;;;17.26;64.05;99079.19;5017811;28;20022;-76
2022/06/13 04:55:50;;;;;;;11.80;5.03;;;;;;;17.50;64.67;99100.78;5007348;28;20702;-76
2022/06/13 04:58:39;;;;;;;12.82;5.13;;;;;;;16.65;67.58;99089.75;4996901;28;20576;-76
2022/06/13 05:01:25;;;;;;;9.30;4.10;;;;;;;16.53;67.26;99083.09;4993975;28;20081;-76
2022/06/13 05:03:52;;;;;;;14.07;4.90;;;;;;;16.18;69.15;99084.94;4977026;28;20045;-76
2022/06/13 05:06:29;;;;;;;12.50;4.25;;;;;;;17.39;64.93;99085.78;4998113;28;20041;-76
2022/06/13 05:09:14;;;;;;;11.15;3.92;;;;;;;17.20;65.24;99088.44;5010753;28;20076;-77
2022/06/13 05:11:49;;;;;;;12.27;4.65;;;;;;;17.23;64.69;99093.28;4995084;28;20061;-76
2022/06/13 05:14:39;;;;;;;10.55;3.90;;;;;;;17.76;62.51;99113.75;5001940;28;20592;-76
2022/06/13 05:17:05;;;;;;;8.27;3.92;;;;;;;17.74;62.49;99104.31;5001154;28;20041;-76
2022/06/13 05:19:59;;;;;;;8.90;3.80;;;;;;;17.74;62.73;99112.41;5001001;28;20034;-76
2022/06/13 05:22:53;;;;;;;10.25;4.13;;;;;;;18.01;61.39;99106.41;4983843;28;20033;-75
2022/06/13 05:25:27;;;;;;;8.45;4.50;;;;;;;17.63;64.17;99108.22;5001164;28;20037;-76
2022/06/13 05:27:53;;;;;;;12.75;5.05;;;;;;;17.98;61.65;99108.59;5017579;28;20456;-77
2022/06/13 05:30:21;;;;;;;11.25;4.03;;;;;;;17.70;62.34;99097.91;4997327;28;20096;-76
2022/06/13 05:32:47;;;;;;;11.18;4.72;;;;;;;17.85;61.97;99113.91;4995875;28;20073;-76
2022/06/13 05:35:23;;;;;;;8.95;4.20;;;;;;;17.79;62.48;99121.28;4997653;28;20532;-76
2022/06/13 05:37:52;;;;;;;10.30;3.70;;;;;;;18.24;60.60;99127.97;4996112;28;20034;-77
2022/06/13 05:40:20;;;;;;;6.85;3.40;;;;;;;18.17;60.99;99132.16;4997854;28;20092;-76
2022/06/13 05:42:46;;;;;;;8.43;4.28;;;;;;;18.12;61.49;99135.72;4993518;28;20034;-76
2022/06/13 05:45:13;;;;;;;7.43;3.58;;;;;;;18.15;62.74;99139.75;4996603;28;20037;-76
2022/06/13 05:47:41;;;;;;;9.88;3.75;;;;;;;18.03;62.20;99153.66;4985472;28;20045;-76
2022/06/13 05:50:12;;;;;;;6.80;3.75;;;;;;;17.41;66.63;99129.53;5002948;28;20034;-76
2022/06/13 05:52:37;;;;;;;7.90;4.03;;;;;;;18.37;61.23;99137.28;4988238;28;20425;-76
2022/06/13 05:55:03;;;;;;;9.77;3.60;;;;;;;18.23;61.50;99117.47;5009746;28;20037;-76
2022/06/13 05:57:29;;;;;;;5.68;3.05;;;;;;;18.40;60.72;99120.47;5001177;28;20045;-76
2022/06/13 05:59:54;;;;;;;19.33;5.00;;;;;;;18.45;62.59;99123.13;5005399;28;20434;-76
2022/06/13 06:02:19;;;;;;;8.10;4.25;;;;;;;18.37;61.99;99115.66;4986551;28;20147;-77
2022/06/13 06:04:45;;;;;;;17.65;4.68;;;;;;;18.18;63.29;99122.94;4998875;28;20034;-76
2022/06/13 06:07:10;;;;;;;8.93;4.03;;;;;;;18.19;64.12;99121.84;4989241;28;20042;-76
2022/06/13 06:09:36;;;;;;;12.35;4.32;;;;;;;18.65;61.26;99126.31;4977551;28;20068;-77
2022/06/13 06:12:01;;;;;;;9.50;4.38;;;;;;;18.90;60.26;99124.31;4986355;28;20029;-76
2022/06/13 06:14:27;;;;;;;9.07;3.47;;;;;;;19.02;59.84;99128.19;4984942;28;20697;-76
2022/06/13 06:16:52;;;;;;;11.75;3.80;;;;;;;19.16;59.56;99134.41;4989506;28;20401;-76
2022/06/13 06:19:18;;;;;;;9.27;3.92;;;;;;;19.22;59.59;99133.22;4963467;28;20655;-76
2022/06/13 06:21:43;;;;;;;6.50;3.08;;;;;;;19.14;59.53;99142.03;4984428;28;20055;-77
2022/06/13 06:24:09;;;;;;;13.07;4.30;;;;;;;19.26;59.30;99136.94;4987683;28;20417;-76
2022/06/13 06:26:34;;;;;;;8.88;3.90;;;;;;;19.27;59.23;99132.31;4982532;28;20029;-76
2022/06/13 06:28:59;;;;;;;13.18;4.63;;;;;;;19.30;59.09;99131.75;4988274;28;21572;-76
2022/06/13 06:31:25;;;;;;;10.60;4.03;;;;;;;19.43;59.14;99160.78;4975764;28;20034;-76
2022/06/13 06:33:50;;;;;;;10.13;4.53;;;;;;;19.37;59.00;99165.47;4960021;28;20080;-76
2022/06/13 06:36:16;;;;;;;15.55;4.93;;;;;;;19.21;61.12;99163.28;4995538;28;20030;-76
2022/06/13 06:38:42;;;;;;;7.68;3.80;;;;;;;19.37;59.05;99162.75;4993635;28;20122;-76
2022/06/13 06:41:07;;;;;;;7.82;3.38;;;;;;;19.48;59.02;99168.81;4976582;28;20033;-77
2022/06/13 06:43:33;;;;;;;7.47;3.90;;;;;;;19.35;59.28;99164.97;4989339;28;20342;-76
2022/06/13 06:45:58;;;;;;;11.57;3.75;;;;;;;19.34;59.65;99171.50;4999671;28;20038;-76
2022/06/13 06:48:24;;;;;;;10.15;4.15;;;;;;;18.90;61.00;99173.81;4985198;28;20037;-76
2022/06/13 06:50:51;;;;;;;10.98;4.28;;;;;;;19.06;60.30;99179.78;5020776;28;20030;-76
2022/06/13 06:53:22;;;;;;;10.95;4.05;;;;;;;19.26;59.52;99179.47;5010048;28;20045;-76
2022/06/13 07:01:18;;;;;;;11.77;3.95;;;;;;;18.52;61.81;99194.66;5001602;28;20501;-77
2022/06/13 07:03:44;;;;;;;9.18;4.38;;;;;;;18.57;61.12;99201.88;5005304;28;20037;-76
2022/06/13 07:06:11;;;;;;;14.05;4.88;;;;;;;18.21;62.12;99190.72;5007622;28;20037;-76
2022/06/13 07:08:37;;;;;;;7.57;4.43;;;;;;;18.33;61.75;99184.88;5005031;28;20041;-76
2022/06/13 07:13:49;;;;;;;18.15;4.78;;;;;;;18.57;60.79;99175.66;5007175;28;20642;-76
2022/06/13 07:16:14;;;;;;;10.57;4.72;;;;;;;18.47;61.28;99172.31;5006214;28;20125;-76
2022/06/13 07:18:42;;;;;;;10.52;3.92;;;;;;;18.55;61.26;99172.44;4987075;28;20826;-76
2022/06/13 07:21:08;;;;;;;13.43;4.68;;;;;;;18.55;60.92;99171.63;4987049;28;20128;-76
2022/06/13 07:23:34;;;;;;;9.13;3.85;;;;;;;18.39;61.28;99181.81;4987672;28;20129;-76
2022/06/13 07:26:00;;;;;;;5.88;3.38;;;;;;;18.32;61.69;99167.88;4971943;28;20121;-76
2022/06/13 07:28:26;;;;;;;9.93;4.13;;;;;;;18.42;60.88;99167.72;4986748;28;20064;-76
2022/06/13 07:30:51;;;;;;;11.43;5.68;;;;;;;18.33;61.61;99161.38;5001972;28;21029;-76
2022/06/13 07:33:17;;;;;;;9.00;3.47;;;;;;;18.47;61.33;99173.13;5004008;28;20461;-76
2022/06/13 07:35:43;;;;;;;8.18;4.07;;;;;;;18.48;61.42;99176.59;4991088;28;20057;-76
2022/06/13 07:38:16;;;;;;;8.45;3.53;;;;;;;18.60;60.79;99174.28;4990234;28;20084;-76
2022/06/13 07:40:42;;;;;;;9.73;3.92;;;;;;;18.79;59.90;99183.19;4989833;28;20106;-77
2022/06/13 07:43:21;;;;;;;9.63;3.95;;;;;;;18.61;62.04;99175.88;4989599;28;20034;-77
2022/06/13 07:45:46;;;;;;;9.85;4.40;;;;;;;18.48;61.71;99182.81;4992286;28;20037;-76
2022/06/13 07:48:12;;;;;;;11.55;4.05;;;;;;;18.57;61.16;99185.66;5014471;28;20026;-76
2022/06/13 07:50:37;;;;;;;8.07;4.07;;;;;;;18.78;60.49;99176.19;4990077;28;20080;-76
2022/06/13 07:53:02;;;;;;;7.05;3.15;;;;;;;18.95;59.89;99173.75;4990446;28;20040;-76
2022/06/13 07:55:31;;;;;;;11.50;4.28;;;;;;;18.89;60.52;99195.75;5005844;28;20038;-76
2022/06/13 07:57:56;;;;;;;10.50;3.58;;;;;;;19.07;59.83;99197.63;5003787;28;20085;-76
2022/06/13 08:00:25;;;;;;;13.60;4.55;;;;;;;18.97;60.94;99195.09;5000701;28;20034;-76
2022/06/13 08:02:53;;;;;;;7.70;4.38;;;;;;;19.27;59.03;99200.81;5000836;28;20481;-76
2022/06/13 08:05:19;;;;;;;12.57;4.63;;;;;;;19.06;60.04;99194.13;5004468;28;20081;-76
2022/06/13 08:07:45;;;;;;;13.13;5.35;;;;;;;19.11;59.74;99206.78;5006805;28;20033;-76
2022/06/13 08:10:10;;;;;;;7.72;3.92;;;;;;;18.99;59.56;99201.81;5004112;28;20061;-76
2022/06/13 08:12:38;;;;;;;9.13;3.90;;;;;;;18.97;59.00;99216.72;5002749;28;20034;-76
2022/06/13 08:15:03;;;;;;;9.43;3.65;;;;;;;19.06;58.84;99215.78;5004373;28;20121;-76
2022/06/13 08:17:29;;;;;;;10.20;3.60;;;;;;;19.11;58.66;99209.47;4978085;28;20036;-76
2022/06/13 08:19:54;;;;;;;6.53;4.30;;;;;;;19.21;58.77;99215.53;4985544;28;20042;-77
2022/06/13 08:22:20;;;;;;;8.90;3.28;;;;;;;18.97;59.01;99185.06;4982865;28;20084;-75
2022/06/13 08:24:45;;;;;;;9.45;3.70;;;;;;;18.97;58.68;99206.72;4971036;28;20056;-76
2022/06/13 08:27:10;;;;;;;9.18;3.53;;;;;;;19.15;57.17;99205.09;4962339;28;20053;-76
2022/06/13 08:29:36;;;;;;;6.63;3.08;;;;;;;19.24;57.83;99206.81;4982380;28;20930;-76
2022/06/13 08:32:02;;;;;;;9.25;3.17;;;;;;;19.56;57.08;99210.63;4971422;28;20746;-75
2022/06/13 08:34:28;;;;;;;6.38;3.03;;;;;;;19.54;56.53;99210.13;4987753;28;20477;-75
2022/06/13 08:36:54;;;;;;;9.80;3.60;;;;;;;19.55;56.04;99214.47;4983669;28;20155;-75
2022/06/13 08:39:20;;;;;;;9.55;3.95;;;;;;;19.45;56.73;99218.13;4968444;28;20033;-77
2022/06/13 08:41:56;;;;;;;4.90;2.70;;;;;;;19.34;56.38;99201.25;4999232;28;20071;-77
2022/06/13 08:44:43;;;;;;;9.07;2.80;;;;;;;19.26;56.65;99209.22;4986900;28;20033;-75
2022/06/13 08:47:46;;;;;;;5.72;2.80;;;;;;;19.21;56.11;99218.25;4986459;28;20049;-76
2022/06/13 08:50:37;;;;;;;6.10;2.60;;;;;;;18.99;56.79;99219.94;4982044;28;20099;-76
2022/06/13 08:53:07;;;;;;;4.45;2.65;;;;;;;19.16;56.08;99215.59;4986987;28;20064;-76
2022/06/13 08:55:35;;;;;;;6.80;3.05;;;;;;;19.01;55.82;99223.16;4985737;28;20034;-76
2022/06/13 08:58:26;;;;;;;5.05;3.05;;;;;;;19.11;55.60;99202.16;4982684;28;20033;-76
2022/06/13 09:00:59;;;;;;;5.28;2.50;;;;;;;19.18;55.11;99224.22;4987238;28;20114;-76
2022/06/13 09:03:43;;;;;;;7.10;2.63;;;;;;;19.25;55.42;99232.78;5014335;28;20632;-76
2022/06/13 09:06:31;;;;;;;5.10;2.80;;;;;;;19.51;55.01;99227.78;5004954;28;20026;-75
2022/06/13 09:09:09;;;;;;;4.75;2.50;;;;;;;19.52;54.42;99239.41;5019392;28;20029;-76
2022/06/13 09:11:42;;;;;;;8.25;3.67;;;;;;;19.51;54.58;99233.19;5007850;28;20485;-77
2022/06/13 09:14:14;;;;;;;4.40;2.22;;;;;;;19.59;54.12;99224.41;5006266;28;20121;-76
2022/06/13 09:16:45;;;;;;;6.47;2.58;;;;;;;19.48;54.37;99228.38;5009224;28;20057;-76
2022/06/13 09:19:33;;;;;;;6.97;2.53;;;;;;;19.51;54.62;99235.91;5007319;28;20448;-76
2022/06/13 09:22:09;;;;;;;4.15;2.42;;;;;;;19.63;53.96;99247.06;5002217;28;20026;-76
2022/06/13 09:24:44;;;;;;;6.60;2.40;;;;;;;19.71;53.69;99240.97;5002387;28;20034;-76
2022/06/13 09:27:17;;;;;;;5.43;2.27;;;;;;;19.26;53.68;99230.88;5002795;28;20026;-76
2022/06/13 09:29:59;;;;;;;4.88;2.75;;;;;;;19.30;54.02;99240.00;5002887;28;20279;-76
2022/06/13 09:32:38;;;;;;;4.75;2.63;;;;;;;19.62;54.20;99240.03;5004807;28;20486;-76
2022/06/13 09:35:20;;;;;;;5.55;2.40;;;;;;;19.90;53.36;99243.59;4987616;28;20092;-76
2022/06/13 09:37:56;;;;;;;5.72;2.50;;;;;;;19.90;53.72;99247.09;4989294;28;20041;-76
2022/06/13 09:41:06;;;;;;;3.45;2.30;;;;;;;20.09;53.07;99249.75;4986966;28;20076;-77
2022/06/13 09:43:34;;;;;;;4.85;2.13;;;;;;;20.05;52.70;99252.25;4987077;28;21772;-76
2022/06/13 09:46:15;;;;;;;4.75;2.30;;;;;;;19.84;53.06;99252.91;4998681;28;20081;-76
2022/06/13 09:48:48;;;;;;;4.05;2.30;;;;;;;19.92;53.23;99257.66;4986928;28;20061;-76
2022/06/13 09:51:21;;;;;;;5.28;2.40;;;;;;;19.90;53.41;99259.84;4984123;28;20069;-77
2022/06/13 09:53:58;;;;;;;4.53;2.80;;;;;;;19.95;53.81;99259.75;4986569;28;20034;-76
2022/06/13 09:56:42;;;;;;;5.45;2.50;;;;;;;20.07;53.46;99254.66;4987760;28;20449;-75
2022/06/13 09:59:13;;;;;;;2.92;1.80;;;;;;;19.99;52.65;99258.06;4989397;28;20018;-77
2022/06/13 10:01:47;;;;;;;5.85;2.17;;;;;;;19.96;51.55;99245.91;4991068;28;20049;-76
2022/06/13 10:04:39;;;;;;;4.68;1.77;;;;;;;19.97;52.67;99252.94;4996028;28;20462;-77
2022/06/13 10:07:19;;;;;;;3.13;1.85;;;;;;;19.99;52.44;99247.22;4997190;28;20029;-77
2022/06/13 10:10:04;;;;;;;3.63;2.03;;;;;;;20.13;51.65;99245.31;4995183;28;20037;-77
2022/06/13 10:12:55;;;;;;;4.38;2.15;;;;;;;20.23;51.31;99249.75;4997923;28;20162;-78
2022/06/13 10:15:46;;;;;;;4.18;2.28;;;;;;;20.39;50.61;99232.09;4999274;28;20560;-77
2022/06/13 10:18:14;;;;;;;2.28;1.73;;;;;;;20.31;50.43;99239.03;4999556;28;20033;-77
2022/06/13 10:21:00;;;;;;;2.90;1.83;;;;;;;20.51;49.88;99238.59;5011787;28;20045;-77
2022/06/13 10:23:28;;;;;;;3.08;2.00;;;;;;;20.70;49.49;99246.63;5002453;28;20113;-77
2022/06/13 10:25:56;;;;;;;6.50;2.25;;;;;;;20.62;50.30;99241.91;4986807;28;20511;-78
2022/06/13 10:28:37;;;;;;;7.30;2.17;;;;;;;20.50;49.04;99236.19;4990310;28;20653;-75
2022/06/13 10:31:09;;;;;;;4.85;1.90;;;;;;;20.28;48.95;99201.69;4993409;28;20057;-76
2022/06/13 10:33:42;;;;;;;2.88;2.25;;;;;;;21.11;49.03;99227.53;4992828;28;20581;-75
2022/06/13 10:36:37;;;;;;;6.15;2.38;;;;;;;20.82;48.79;99225.97;4993291;28;20120;-76
2022/06/13 10:39:13;;;;;;;7.18;2.25;;;;;;;20.80;49.08;99224.69;4993411;28;20038;-76
2022/06/13 10:41:40;;;;;;;;;;;;;;;20.85;50.98;99228.09;5004904;28;20444;-75
2022/06/13 10:44:09;;;;;;;7.78;2.53;;;;;;;21.26;48.84;99224.44;5001671;28;20665;-75
2022/06/13 10:46:34;;;;;;;6.20;2.30;;;;;;;21.32;48.06;99228.63;4993563;28;20393;-76
2022/06/13 10:49:23;;;;;;;3.40;1.85;;;;;;;21.39;48.34;99223.56;4990957;28;20709;-75
2022/06/13 10:51:50;;;;;;;7.15;2.53;;;;;;;21.49;46.42;99202.38;4986205;28;20133;-77
2022/06/13 10:54:20;;;;;;;6.82;2.38;;;;;;;21.86;47.55;99228.34;5000276;28;20152;-75
2022/06/13 10:56:51;;;;;;;5.53;2.15;;;;;;;21.74;48.06;99228.09;5008143;28;20041;-76
2022/06/13 10:59:29;;;;;;;5.65;2.85;;;;;;;21.59;48.25;99223.06;5004456;28;20524;-75
2022/06/13 11:02:01;;;;;;;8.85;3.03;;;;;;;21.40;48.40;99238.75;4985561;28;20026;-76
2022/06/13 11:04:32;;;;;;;3.67;2.70;;;;;;;21.06;48.89;99235.78;4989941;28;20034;-75
2022/06/13 11:07:02;;;;;;;6.70;2.67;;;;;;;20.80;49.07;99235.53;5001371;28;20168;-75
2022/06/13 11:09:41;;;;;;;6.03;2.40;;;;;;;20.45;49.38;99244.44;5007133;28;20108;-75
2022/06/13 11:12:23;;;;;;;7.90;3.17;;;;;;;20.30;49.96;99245.56;4998150;28;20033;-76
2022/06/13 11:23:37;;;;;;;5.30;2.80;;;;;;;20.59;50.19;99234.38;5008154;28;20127;-76
2022/06/13 11:27:39;;;;;;;7.18;2.80;;;;;;;20.61;50.24;99243.81;5003463;28;20021;-75
2022/06/13 11:28:49;;;;;;;5.00;2.70;;;;;;;20.85;49.60;99232.72;5006752;28;20060;-76
2022/06/13 11:31:18;;;;;;;6.13;2.47;;;;;;;20.41;48.99;99233.41;5004851;28;20037;-75
2022/06/13 11:33:44;;;;;;;7.68;3.67;;;;;;;20.75;49.70;99222.09;5003437;28;20029;-76
2022/06/13 11:36:16;;;;;;;4.55;2.47;;;;;;;20.80;49.24;99239.06;5000199;28;20994;-76
2022/06/13 11:39:03;;;;;;;6.15;2.65;;;;;;;20.69;49.13;99237.66;4998819;28;20568;-76
2022/06/13 11:41:39;;;;;;;4.68;2.42;;;;;;;20.80;48.85;99239.06;4996938;28;20037;-76
2022/06/13 11:44:10;;;;;;;10.32;2.80;;;;;;;20.57;48.96;99236.59;4994389;28;20030;-76
2022/06/13 11:46:59;;;;;;;3.38;2.22;;;;;;;20.57;49.01;99240.13;5013015;28;20720;-77
2022/06/13 11:49:41;;;;;;;8.65;3.30;;;;;;;20.65;48.52;99242.09;5000423;28;20287;-77
2022/06/13 11:53:35;;;;;;;9.20;3.70;;;;;;;20.72;47.72;99214.56;4990970;28;20128;-76
2022/06/13 11:55:17;;;;;;;7.85;2.92;;;;;;;21.35;46.39;99226.13;4997787;28;20176;-78
2022/06/13 11:57:42;;;;;;;5.82;2.70;;;;;;;21.55;46.78;99236.47;4987604;28;20086;-76
2022/06/13 12:00:22;;;;;;;6.68;2.33;;;;;;;21.86;45.67;99224.84;5001801;28;20034;-76
2022/06/13 12:02:47;;;;;;;6.25;2.97;;;;;;;22.00;45.11;99229.03;4983453;28;20018;-78
2022/06/13 12:05:13;;;;;;;7.47;3.17;;;;;;;22.26;44.98;99232.66;5008262;28;20032;-76
2022/06/13 12:07:38;;;;;;;4.47;2.65;;;;;;;22.24;45.22;99231.38;4983957;28;20052;-76
2022/06/13 12:10:18;;;;;;;5.03;2.70;;;;;;;22.33;44.20;99227.56;4986747;28;20064;-76
2022/06/13 12:12:45;;;;;;;7.82;2.45;;;;;;;21.89;45.70;99238.59;4990818;28;20042;-78
2022/06/13 12:15:13;;;;;;;5.93;2.65;;;;;;;22.05;46.06;99223.47;4995930;28;20091;-78
2022/06/13 12:17:44;;;;;;;7.95;2.97;;;;;;;22.18;46.00;99244.31;4970577;28;20520;-76